Terminal Aerodrome Forecast
Issued by NWS Buffalo, NY

Home | Current Version | Previous Version | Text Only | Print | Product List | Glossary On
Versions: 1 2 3 4 5 6 7 8 9 10 11 12 13 14 15 16 17 18 19 20 21 22 23 24 25 26
339
FTUS41 KBUF 250520
TAFART
TAF
KART 250520Z 2506/2606 06007KT P6SM BKN250
     FM250900 10012G20KT 6SM -RA OVC060 WS020/15040KT
     FM251200 12013G26KT 6SM -RA OVC020 WS020/18045KT
     FM251500 15021G35KT 6SM -RA OVC025 WS020/24050KT
     FM251600 15022G38KT 6SM -RA BKN025
     FM252000 19016G31KT P6SM SCT250
     FM252300 21012G23KT P6SM FEW250=

USA.gov is the U.S. government's official web portal to all federal, state and local government web resources and services.